Time;durP1;ratioP1;P1;durP2;ratioP2;P2;SDS_P1;SDS_P2;PMS_P1;PMS_P2;Temp;Humidity;BMP_temperature;BMP_pressure;BME280_temperature;BME280_humidity;BME280_pressure;Samples;Min_cycle;Max_cycle;Signal;HPM_P1;HPM_P2
2022/07/30 00:00:57;;;;;;;;;;;15.40;99.90;;;;;;5030688;28;19957;-72
2022/07/30 00:03:22;;;;;;;;;;;15.40;99.90;;;;;;5026881;28;19971;-72
2022/07/30 00:05:48;;;;;;;;;;;15.40;99.90;;;;;;5029046;28;19913;-72
2022/07/30 00:08:13;;;;;;;;;;;15.40;99.90;;;;;;5031174;28;19921;-72
2022/07/30 00:10:39;;;;;;;;;;;15.40;99.90;;;;;;5030478;28;19924;-72
2022/07/30 00:13:05;;;;;;;;;;;15.30;99.90;;;;;;5031550;28;19916;-72
2022/07/30 00:15:31;;;;;;;;;;;15.30;99.90;;;;;;5031023;28;19991;-72
2022/07/30 00:17:56;;;;;;;;;;;15.30;99.90;;;;;;5027894;28;20019;-72
2022/07/30 00:20:22;;;;;;;;;;;15.30;99.90;;;;;;5035194;28;19939;-72
2022/07/30 00:22:48;;;;;;;;;;;15.30;99.90;;;;;;5031943;28;19924;-72
2022/07/30 00:25:14;;;;;;;;;;;15.30;99.90;;;;;;5033850;28;19913;-72
2022/07/30 00:27:39;;;;;;;;;;;15.30;99.90;;;;;;5033937;28;19917;-72
2022/07/30 00:30:05;;;;;;;;;;;15.30;99.90;;;;;;5034950;28;19999;-72
2022/07/30 00:32:31;;;;;;;;;;;15.30;99.90;;;;;;5031399;28;20023;-72
2022/07/30 00:34:56;;;;;;;;;;;15.30;99.90;;;;;;5032955;28;20013;-72
2022/07/30 00:37:22;;;;;;;;;;;15.30;99.90;;;;;;5033205;28;19913;-72
2022/07/30 00:39:47;;;;;;;;;;;15.30;99.90;;;;;;5034124;28;19913;-72
2022/07/30 00:42:13;;;;;;;;;;;15.30;99.90;;;;;;5034622;28;19920;-72
2022/07/30 00:44:40;;;;;;;;;;;15.20;99.90;;;;;;5025680;28;19975;-72
2022/07/30 00:47:06;;;;;;;;;;;15.20;99.90;;;;;;5034358;28;19917;-74
2022/07/30 00:49:31;;;;;;;;;;;15.20;99.90;;;;;;5033733;28;19917;-72
2022/07/30 00:51:57;;;;;;;;;;;15.10;99.90;;;;;;5033613;28;19917;-72
2022/07/30 00:54:22;;;;;;;;;;;15.10;99.90;;;;;;5035920;28;19917;-72
2022/07/30 00:56:48;;;;;;;;;;;15.10;99.90;;;;;;5036606;28;19917;-72
2022/07/30 00:59:14;;;;;;;;;;;15.00;99.90;;;;;;5037458;28;19924;-72
2022/07/30 01:01:39;;;;;;;;;;;15.00;99.90;;;;;;5037543;28;19909;-72
2022/07/30 01:04:10;;;;;;;;;;;15.00;99.90;;;;;;5035643;28;19917;-72
2022/07/30 01:06:37;;;;;;;;;;;14.90;99.90;;;;;;5036821;28;19917;-73
2022/07/30 01:09:02;;;;;;;;;;;14.80;99.90;;;;;;5036891;28;19917;-73
2022/07/30 01:11:32;;;;;;;;;;;14.70;99.90;;;;;;5037569;28;20327;-73
2022/07/30 01:13:58;;;;;;;;;;;14.70;99.90;;;;;;5036330;28;19921;-72
2022/07/30 01:16:24;;;;;;;;;;;14.70;99.90;;;;;;5034233;28;19952;-72
2022/07/30 01:21:37;;;;;;;;;;;14.80;99.90;;;;;;5037376;28;20315;-73
2022/07/30 01:24:10;;;;;;;;;;;14.80;99.90;;;;;;5035638;28;19919;-73
2022/07/30 01:26:36;;;;;;;;;;;14.80;99.90;;;;;;5036013;28;19924;-75
2022/07/30 01:29:02;;;;;;;;;;;14.80;99.90;;;;;;5035514;28;20004;-73
2022/07/30 01:31:28;;;;;;;;;;;14.70;99.90;;;;;;5037181;28;19913;-73
2022/07/30 01:33:54;;;;;;;;;;;14.80;99.90;;;;;;5037245;28;19928;-73
2022/07/30 01:36:21;;;;;;;;;;;14.70;99.90;;;;;;5035934;28;19913;-76
2022/07/30 01:38:47;;;;;;;;;;;14.70;99.90;;;;;;5027563;28;19921;-73
2022/07/30 01:41:14;;;;;;;;;;;14.70;99.90;;;;;;5036606;28;19909;-73
2022/07/30 01:43:40;;;;;;;;;;;14.70;99.90;;;;;;5035973;28;19913;-74
2022/07/30 01:46:06;;;;;;;;;;;14.70;99.90;;;;;;5034971;28;19920;-75
2022/07/30 01:48:34;;;;;;;;;;;14.70;99.90;;;;;;5034576;28;20012;-74
2022/07/30 01:51:01;;;;;;;;;;;14.60;99.90;;;;;;5035166;28;20558;-73
2022/07/30 01:53:28;;;;;;;;;;;14.60;99.90;;;;;;5030484;28;20304;-73
2022/07/30 01:55:54;;;;;;;;;;;14.50;99.90;;;;;;5033464;28;19910;-73
2022/07/30 01:58:21;;;;;;;;;;;14.50;99.90;;;;;;5034621;28;19917;-73
2022/07/30 02:00:48;;;;;;;;;;;14.50;99.90;;;;;;5033117;28;19920;-76
2022/07/30 02:03:13;;;;;;;;;;;14.60;99.90;;;;;;5031856;28;19909;-73
2022/07/30 02:05:40;;;;;;;;;;;14.60;99.90;;;;;;5035942;28;19958;-73
2022/07/30 02:08:06;;;;;;;;;;;14.60;99.90;;;;;;5036503;28;20013;-73
2022/07/30 02:10:40;;;;;;;;;;;14.60;99.90;;;;;;5035842;28;20276;-73
2022/07/30 02:13:06;;;;;;;;;;;14.60;99.90;;;;;;5027927;28;19913;-73
2022/07/30 02:15:39;;;;;;;;;;;14.60;99.90;;;;;;5035755;28;19914;-73
2022/07/30 02:18:10;;;;;;;;;;;14.70;99.90;;;;;;5032845;28;19921;-72
2022/07/30 02:20:36;;;;;;;;;;;14.70;99.90;;;;;;5035620;28;19978;-73
2022/07/30 02:23:05;;;;;;;;;;;14.80;99.90;;;;;;5033244;28;20324;-73
2022/07/30 02:25:32;;;;;;;;;;;14.80;99.90;;;;;;5035798;28;20374;-73
2022/07/30 02:28:00;;;;;;;;;;;14.80;99.90;;;;;;5035004;28;20316;-73
2022/07/30 02:30:29;;;;;;;;;;;14.80;99.90;;;;;;5035909;28;19945;-73
2022/07/30 02:32:58;;;;;;;;;;;14.70;99.90;;;;;;5021876;28;19916;-72
2022/07/30 02:35:25;;;;;;;;;;;14.60;99.90;;;;;;5035391;28;19966;-73
2022/07/30 02:37:52;;;;;;;;;;;14.60;99.90;;;;;;5032217;28;19921;-72
2022/07/30 02:40:18;;;;;;;;;;;14.60;99.90;;;;;;5035877;28;19916;-72
2022/07/30 02:42:45;;;;;;;;;;;14.60;99.90;;;;;;5034533;28;19909;-72
2022/07/30 02:45:11;;;;;;;;;;;14.50;99.90;;;;;;5035210;28;20295;-72
2022/07/30 02:47:38;;;;;;;;;;;14.50;99.90;;;;;;5030105;28;19919;-72
2022/07/30 02:50:05;;;;;;;;;;;14.40;99.90;;;;;;5033722;28;19956;-73
2022/07/30 02:52:31;;;;;;;;;;;14.40;99.90;;;;;;5034888;28;19924;-72
2022/07/30 02:54:59;;;;;;;;;;;14.40;99.90;;;;;;5034547;28;20289;-72
2022/07/30 02:57:25;;;;;;;;;;;14.30;99.90;;;;;;5033641;28;20308;-72
2022/07/30 02:59:51;;;;;;;;;;;14.30;99.90;;;;;;5032986;28;20015;-73
2022/07/30 03:02:18;;;;;;;;;;;14.30;99.90;;;;;;5035256;28;19913;-73
2022/07/30 03:04:44;;;;;;;;;;;14.20;99.90;;;;;;5039447;28;19935;-72
2022/07/30 03:07:10;;;;;;;;;;;14.20;99.90;;;;;;5044406;28;20301;-72
2022/07/30 03:09:37;;;;;;;;;;;14.20;99.90;;;;;;5032392;28;19925;-73
2022/07/30 03:12:04;;;;;;;;;;;14.10;99.90;;;;;;5036621;28;19909;-72
2022/07/30 03:14:30;;;;;;;;;;;14.10;99.90;;;;;;5039057;28;19925;-72
2022/07/30 03:16:56;;;;;;;;;;;14.10;99.90;;;;;;5033938;28;19932;-72
2022/07/30 03:19:23;;;;;;;;;;;14.10;99.90;;;;;;5039007;28;20300;-73
2022/07/30 03:21:49;;;;;;;;;;;14.10;99.90;;;;;;5035086;28;20007;-75
2022/07/30 03:24:16;;;;;;;;;;;14.10;99.90;;;;;;5032256;28;19913;-72
2022/07/30 03:26:41;;;;;;;;;;;14.10;99.90;;;;;;5034873;28;19963;-72
2022/07/30 03:29:07;;;;;;;;;;;14.00;99.90;;;;;;5034728;28;19960;-71
2022/07/30 03:31:33;;;;;;;;;;;14.00;99.90;;;;;;5034791;28;19996;-72
2022/07/30 03:33:59;;;;;;;;;;;14.00;99.90;;;;;;5035332;28;19913;-71
2022/07/30 03:36:25;;;;;;;;;;;14.00;99.90;;;;;;5035271;28;19955;-71
2022/07/30 03:38:51;;;;;;;;;;;14.00;99.90;;;;;;5034433;28;20071;-71
2022/07/30 03:41:17;;;;;;;;;;;14.00;99.90;;;;;;5042980;28;19920;-71
2022/07/30 03:43:43;;;;;;;;;;;14.00;99.90;;;;;;5034290;28;19920;-71
2022/07/30 03:46:09;;;;;;;;;;;14.00;99.90;;;;;;5025569;28;20004;-71
2022/07/30 03:48:35;;;;;;;;;;;14.10;99.90;;;;;;5054880;28;19978;-71
2022/07/30 03:51:05;;;;;;;;;;;14.00;99.90;;;;;;5037961;28;20324;-71
2022/07/30 03:53:31;;;;;;;;;;;14.00;99.90;;;;;;5021469;28;19917;-71
2022/07/30 03:55:57;;;;;;;;;;;14.00;99.90;;;;;;5033693;28;19913;-76
2022/07/30 03:58:22;;;;;;;;;;;14.00;99.90;;;;;;5048682;28;19935;-71
2022/07/30 04:00:49;;;;;;;;;;;14.00;99.90;;;;;;5035607;28;20220;-71
2022/07/30 04:03:28;;;;;;;;;;;14.00;99.90;;;;;;5036656;28;20228;-71
2022/07/30 04:05:54;;;;;;;;;;;14.00;99.90;;;;;;5044732;28;20020;-72
2022/07/30 04:08:19;;;;;;;;;;;14.00;99.90;;;;;;5032293;28;20019;-71
2022/07/30 04:10:45;;;;;;;;;;;14.10;99.90;;;;;;5036266;28;19957;-71
2022/07/30 04:13:11;;;;;;;;;;;14.10;99.90;;;;;;5034946;28;19917;-71
2022/07/30 04:15:40;;;;;;;;;;;14.10;99.90;;;;;;5053277;28;20326;-71
2022/07/30 04:18:09;;;;;;;;;;;14.10;99.90;;;;;;5045083;28;19925;-71
2022/07/30 04:20:38;;;;;;;;;;;14.20;99.90;;;;;;5038899;28;20031;-71
2022/07/30 04:23:04;;;;;;;;;;;14.20;99.90;;;;;;5034277;28;19913;-71
2022/07/30 04:25:30;;;;;;;;;;;14.20;99.90;;;;;;5048936;28;19916;-71
2022/07/30 04:27:56;;;;;;;;;;;14.10;99.90;;;;;;5035737;28;19948;-77
2022/07/30 04:30:21;;;;;;;;;;;14.20;99.90;;;;;;5034553;28;19960;-70
2022/07/30 04:32:47;;;;;;;;;;;14.10;99.90;;;;;;5042709;28;20011;-71
2022/07/30 04:35:13;;;;;;;;;;;14.10;99.90;;;;;;5034324;28;19917;-71
2022/07/30 04:37:38;;;;;;;;;;;14.10;99.90;;;;;;5034640;28;20034;-71
2022/07/30 04:40:04;;;;;;;;;;;14.10;99.90;;;;;;5042536;28;20008;-71
2022/07/30 04:42:30;;;;;;;;;;;14.20;99.90;;;;;;5033127;28;20031;-71
2022/07/30 04:44:55;;;;;;;;;;;14.20;99.90;;;;;;5035461;28;20208;-71
2022/07/30 04:47:21;;;;;;;;;;;14.20;99.90;;;;;;5033651;28;20258;-71
2022/07/30 04:49:47;;;;;;;;;;;14.20;99.90;;;;;;5033880;28;19913;-71
2022/07/30 04:52:14;;;;;;;;;;;14.20;99.90;;;;;;5032717;28;20003;-71
2022/07/30 04:54:45;;;;;;;;;;;14.20;99.90;;;;;;5043269;28;20240;-76
2022/07/30 04:57:12;;;;;;;;;;;14.20;99.90;;;;;;5045335;28;19933;-71
2022/07/30 04:59:38;;;;;;;;;;;14.20;99.90;;;;;;5038457;28;19909;-71
2022/07/30 05:02:05;;;;;;;;;;;14.30;99.90;;;;;;5038844;28;20027;-76
2022/07/30 05:04:32;;;;;;;;;;;14.40;99.90;;;;;;5035831;28;19920;-71
2022/07/30 05:06:58;;;;;;;;;;;14.40;99.90;;;;;;5040049;28;20296;-71
2022/07/30 05:09:24;;;;;;;;;;;14.50;99.90;;;;;;5037751;28;20347;-71
2022/07/30 05:11:53;;;;;;;;;;;14.60;99.90;;;;;;5039147;28;20007;-72
2022/07/30 05:14:19;;;;;;;;;;;14.70;99.90;;;;;;5048660;28;19920;-71
2022/07/30 05:16:45;;;;;;;;;;;14.80;99.90;;;;;;5037242;28;19925;-71
2022/07/30 05:19:10;;;;;;;;;;;14.80;99.90;;;;;;5036886;28;20240;-71
2022/07/30 05:21:36;;;;;;;;;;;14.90;99.90;;;;;;5034536;28;20226;-71
2022/07/30 05:24:01;;;;;;;;;;;14.90;99.90;;;;;;5036777;28;19909;-71
2022/07/30 05:26:27;;;;;;;;;;;15.00;99.90;;;;;;5031623;28;20000;-71
2022/07/30 05:28:53;;;;;;;;;;;15.10;99.90;;;;;;5036861;28;19915;-71
2022/07/30 05:31:18;;;;;;;;;;;15.20;99.90;;;;;;5037682;28;19913;-71
2022/07/30 05:33:44;;;;;;;;;;;15.20;99.90;;;;;;5045719;28;20292;-71
2022/07/30 05:36:09;;;;;;;;;;;15.40;99.90;;;;;;5048173;28;20383;-71
2022/07/30 05:38:35;;;;;;;;;;;15.50;99.90;;;;;;5048532;28;20272;-71
2022/07/30 05:41:00;;;;;;;;;;;15.50;99.90;;;;;;5047735;28;19944;-71
2022/07/30 05:43:26;;;;;;;;;;;15.70;99.90;;;;;;5044651;28;20327;-71
2022/07/30 05:45:51;;;;;;;;;;;15.80;99.90;;;;;;5041765;28;19913;-72
2022/07/30 05:48:17;;;;;;;;;;;15.90;99.90;;;;;;5031909;28;20331;-71
2022/07/30 05:50:42;;;;;;;;;;;15.90;99.90;;;;;;5048856;28;20281;-71
2022/07/30 05:53:08;;;;;;;;;;;16.00;99.90;;;;;;5047311;28;19920;-72
2022/07/30 05:55:33;;;;;;;;;;;16.10;99.90;;;;;;5047997;28;19913;-71
2022/07/30 05:57:59;;;;;;;;;;;16.10;99.90;;;;;;5033770;28;19940;-71
2022/07/30 06:00:25;;;;;;;;;;;16.20;99.90;;;;;;5036290;28;19917;-72
2022/07/30 06:02:50;;;;;;;;;;;16.20;99.90;;;;;;5034199;28;19921;-71
2022/07/30 06:05:16;;;;;;;;;;;16.20;99.90;;;;;;5034402;28;20047;-73
2022/07/30 06:07:41;;;;;;;;;;;16.20;99.90;;;;;;5035293;28;19914;-71
2022/07/30 06:10:07;;;;;;;;;;;16.20;99.90;;;;;;5033729;28;19917;-72
2022/07/30 06:12:33;;;;;;;;;;;16.20;99.90;;;;;;5034648;28;19921;-71
2022/07/30 06:14:58;;;;;;;;;;;16.30;99.90;;;;;;5035676;28;19921;-73
2022/07/30 06:17:24;;;;;;;;;;;16.30;99.90;;;;;;5035410;28;19921;-71
2022/07/30 06:19:49;;;;;;;;;;;16.40;99.90;;;;;;5034985;28;19913;-73
2022/07/30 06:22:16;;;;;;;;;;;16.50;99.90;;;;;;5033078;28;19963;-71
2022/07/30 06:24:41;;;;;;;;;;;16.50;99.90;;;;;;5036000;28;19921;-72
2022/07/30 06:27:07;;;;;;;;;;;16.60;99.90;;;;;;5035085;28;19913;-73
2022/07/30 06:29:33;;;;;;;;;;;16.70;99.90;;;;;;5033984;28;19927;-72
2022/07/30 06:31:58;;;;;;;;;;;16.80;99.90;;;;;;5034220;28;19913;-72
2022/07/30 06:34:24;;;;;;;;;;;16.90;99.90;;;;;;5035801;28;19964;-72
2022/07/30 06:36:50;;;;;;;;;;;17.00;99.90;;;;;;5034701;28;19917;-72
2022/07/30 06:39:15;;;;;;;;;;;17.00;99.90;;;;;;5032982;28;19924;-73
2022/07/30 06:41:41;;;;;;;;;;;17.10;99.90;;;;;;5033860;28;19978;-72
2022/07/30 06:44:06;;;;;;;;;;;17.20;99.90;;;;;;5035197;28;19959;-72
2022/07/30 06:46:32;;;;;;;;;;;17.30;99.90;;;;;;5036735;28;19920;-72
2022/07/30 06:48:58;;;;;;;;;;;17.50;99.90;;;;;;5035143;28;20232;-72
2022/07/30 06:51:23;;;;;;;;;;;17.50;99.90;;;;;;5034870;28;19945;-73
2022/07/30 06:53:49;;;;;;;;;;;17.70;99.90;;;;;;5035241;28;19924;-72
2022/07/30 06:56:14;;;;;;;;;;;17.80;99.90;;;;;;5035131;28;19936;-73
2022/07/30 06:58:40;;;;;;;;;;;17.80;99.90;;;;;;5033797;28;19921;-72
2022/07/30 07:01:05;;;;;;;;;;;17.70;99.90;;;;;;5033815;28;20000;-72
2022/07/30 07:03:31;;;;;;;;;;;17.60;99.90;;;;;;5059452;28;19924;-73
2022/07/30 07:05:57;;;;;;;;;;;17.60;99.90;;;;;;5033289;28;19913;-73
2022/07/30 07:08:22;;;;;;;;;;;17.60;99.90;;;;;;5034353;28;19949;-72
2022/07/30 07:10:48;;;;;;;;;;;17.80;99.90;;;;;;5034244;28;19920;-78
2022/07/30 07:13:14;;;;;;;;;;;17.80;99.90;;;;;;5034343;28;20370;-73
2022/07/30 07:15:39;;;;;;;;;;;17.90;99.90;;;;;;5033320;28;20231;-73
2022/07/30 07:18:05;;;;;;;;;;;18.00;99.90;;;;;;5034330;28;20296;-71
2022/07/30 07:20:34;;;;;;;;;;;18.10;99.90;;;;;;5034086;28;19967;-72
2022/07/30 07:22:59;;;;;;;;;;;18.10;99.90;;;;;;5033321;28;20204;-72
2022/07/30 07:25:25;;;;;;;;;;;18.20;99.90;;;;;;5034323;28;19917;-72
2022/07/30 07:27:51;;;;;;;;;;;18.30;99.90;;;;;;5034220;28;19953;-72
2022/07/30 07:30:16;;;;;;;;;;;18.40;99.90;;;;;;5034475;28;19913;-72
2022/07/30 07:32:42;;;;;;;;;;;18.40;99.90;;;;;;5031703;28;19960;-72
2022/07/30 07:35:07;;;;;;;;;;;18.40;99.90;;;;;;5035751;28;20003;-72
2022/07/30 07:37:33;;;;;;;;;;;18.50;99.90;;;;;;5033716;28;19921;-72
2022/07/30 07:39:59;;;;;;;;;;;18.50;99.90;;;;;;5035692;28;20008;-73
2022/07/30 07:42:24;;;;;;;;;;;18.60;99.90;;;;;;5033096;28;20374;-72
2022/07/30 07:44:50;;;;;;;;;;;18.60;99.90;;;;;;5033281;28;19917;-72
2022/07/30 07:47:15;;;;;;;;;;;18.70;99.90;;;;;;5032399;28;20382;-73
2022/07/30 07:49:41;;;;;;;;;;;18.80;99.90;;;;;;5032241;28;19921;-72
2022/07/30 07:52:07;;;;;;;;;;;18.90;99.90;;;;;;5037214;28;19912;-72
2022/07/30 07:54:32;;;;;;;;;;;19.00;99.90;;;;;;5035692;28;19917;-72
2022/07/30 07:56:58;;;;;;;;;;;19.20;99.90;;;;;;5046469;28;19951;-73
2022/07/30 07:59:23;;;;;;;;;;;19.30;99.90;;;;;;5040315;28;19921;-72
2022/07/30 08:01:49;;;;;;;;;;;19.60;99.90;;;;;;5042630;28;20197;-72
2022/07/30 08:04:14;;;;;;;;;;;19.90;99.90;;;;;;5047575;28;19920;-72
2022/07/30 08:06:40;;;;;;;;;;;20.00;99.90;;;;;;5041033;28;19920;-72
2022/07/30 08:09:08;;;;;;;;;;;20.00;99.90;;;;;;5039398;28;19913;-72
2022/07/30 08:11:34;;;;;;;;;;;20.20;99.90;;;;;;5042093;28;19916;-72
2022/07/30 08:13:59;;;;;;;;;;;20.30;99.90;;;;;;5053366;28;19917;-72
2022/07/30 08:16:25;;;;;;;;;;;20.50;99.90;;;;;;5049795;28;19932;-72
2022/07/30 08:18:51;;;;;;;;;;;20.60;99.90;;;;;;5042165;28;20003;-73
2022/07/30 08:21:16;;;;;;;;;;;20.90;99.90;;;;;;5041854;28;19920;-72
2022/07/30 08:23:42;;;;;;;;;;;21.00;99.90;;;;;;5045980;28;19912;-71
2022/07/30 08:26:07;;;;;;;;;;;21.10;99.90;;;;;;5046909;28;19916;-71
2022/07/30 08:28:34;;;;;;;;;;;21.60;99.90;;;;;;5047562;28;20319;-72
2022/07/30 08:31:03;;;;;;;;;;;21.70;99.90;;;;;;5049799;28;20294;-74
2022/07/30 08:33:28;;;;;;;;;;;21.80;99.90;;;;;;5052292;28;19917;-72
2022/07/30 08:35:54;;;;;;;;;;;21.90;99.90;;;;;;5048194;28;19913;-72
2022/07/30 08:38:19;;;;;;;;;;;21.70;99.90;;;;;;5044002;28;19916;-72
2022/07/30 08:40:45;;;;;;;;;;;21.80;99.90;;;;;;5024645;28;19917;-78
2022/07/30 08:43:11;;;;;;;;;;;21.70;99.90;;;;;;5051718;28;19936;-72
2022/07/30 08:45:37;;;;;;;;;;;21.80;99.90;;;;;;5045092;28;20310;-73
2022/07/30 08:48:06;;;;;;;;;;;21.90;99.90;;;;;;5045874;28;20008;-72
2022/07/30 08:50:32;;;;;;;;;;;22.10;99.90;;;;;;5050839;28;20296;-76
2022/07/30 08:53:00;;;;;;;;;;;22.00;99.90;;;;;;5039167;28;20219;-72
2022/07/30 08:55:25;;;;;;;;;;;22.10;99.90;;;;;;5051566;28;20212;-73
2022/07/30 08:57:52;;;;;;;;;;;22.20;99.90;;;;;;5040094;28;19917;-72
2022/07/30 09:00:18;;;;;;;;;;;22.00;99.90;;;;;;5049764;28;20031;-74
2022/07/30 09:02:44;;;;;;;;;;;22.40;99.90;;;;;;5054260;28;19913;-73
2022/07/30 09:05:10;;;;;;;;;;;22.90;99.90;;;;;;5049263;28;19917;-72
2022/07/30 09:07:36;;;;;;;;;;;23.00;98.80;;;;;;5042040;28;19945;-72
2022/07/30 09:10:03;;;;;;;;;;;22.70;98.60;;;;;;5037808;28;19967;-72
2022/07/30 09:12:42;;;;;;;;;;;22.50;97.80;;;;;;5047238;28;19917;-73
2022/07/30 09:15:12;;;;;;;;;;;22.70;98.90;;;;;;5049676;28;20015;-74
2022/07/30 09:17:48;;;;;;;;;;;23.20;98.10;;;;;;5051544;28;20008;-73
2022/07/30 09:20:13;;;;;;;;;;;23.60;98.50;;;;;;5053908;28;20311;-74
2022/07/30 09:22:59;;;;;;;;;;;24.10;98.60;;;;;;5052595;28;19915;-75
2022/07/30 09:25:34;;;;;;;;;;;24.50;98.60;;;;;;5033055;28;19971;-74
2022/07/30 09:27:59;;;;;;;;;;;24.80;96.90;;;;;;5042032;28;19921;-74
2022/07/30 09:30:25;;;;;;;;;;;25.10;97.90;;;;;;5045903;28;19924;-73
2022/07/30 09:32:52;;;;;;;;;;;25.30;96.50;;;;;;5048320;28;19963;-73
2022/07/30 09:35:18;;;;;;;;;;;25.50;97.20;;;;;;5052804;28;19924;-72
2022/07/30 09:37:45;;;;;;;;;;;25.50;96.10;;;;;;5044000;28;20487;-74
2022/07/30 09:40:11;;;;;;;;;;;25.70;97.70;;;;;;5050018;28;19924;-73
2022/07/30 09:42:38;;;;;;;;;;;26.10;97.80;;;;;;5050260;28;19929;-73
2022/07/30 09:45:04;;;;;;;;;;;26.40;95.30;;;;;;5053386;28;19913;-74
2022/07/30 09:47:31;;;;;;;;;;;26.30;94.80;;;;;;5038203;28;19917;-73
2022/07/30 09:50:04;;;;;;;;;;;26.30;96.00;;;;;;5042184;28;19991;-73
2022/07/30 09:52:30;;;;;;;;;;;26.30;95.20;;;;;;5045071;28;20215;-73
2022/07/30 09:54:55;;;;;;;;;;;26.40;95.20;;;;;;5050846;28;19924;-73
2022/07/30 09:57:21;;;;;;;;;;;26.50;94.60;;;;;;5047459;28;19981;-74
2022/07/30 09:59:47;;;;;;;;;;;26.80;95.60;;;;;;5042618;28;19932;-75
2022/07/30 10:02:12;;;;;;;;;;;27.10;95.70;;;;;;5047758;28;20246;-73
2022/07/30 10:04:38;;;;;;;;;;;27.30;94.00;;;;;;5053143;28;19917;-72
2022/07/30 10:07:03;;;;;;;;;;;26.60;94.00;;;;;;5048225;28;19913;-73
2022/07/30 10:09:31;;;;;;;;;;;26.30;94.70;;;;;;5046293;28;19917;-73
2022/07/30 10:11:57;;;;;;;;;;;26.50;94.70;;;;;;5048053;28;19913;-74
2022/07/30 10:14:24;;;;;;;;;;;26.90;95.20;;;;;;5044103;28;20312;-73
2022/07/30 10:16:50;;;;;;;;;;;27.30;93.00;;;;;;5046019;28;19927;-74
2022/07/30 10:19:16;;;;;;;;;;;27.50;94.40;;;;;;5048279;28;19916;-72
2022/07/30 10:21:42;;;;;;;;;;;27.70;93.80;;;;;;5044189;28;19923;-74
2022/07/30 10:24:08;;;;;;;;;;;27.90;93.80;;;;;;5047046;28;19971;-74
2022/07/30 10:26:34;;;;;;;;;;;27.80;92.20;;;;;;5051723;28;19917;-75
2022/07/30 10:29:00;;;;;;;;;;;27.90;92.70;;;;;;5046192;28;19913;-75
2022/07/30 10:31:26;;;;;;;;;;;28.10;91.90;;;;;;5049206;28;19917;-73
2022/07/30 10:33:52;;;;;;;;;;;28.00;93.30;;;;;;5046775;28;19928;-74
2022/07/30 10:36:18;;;;;;;;;;;27.90;93.10;;;;;;5051695;28;19920;-73
2022/07/30 10:38:44;;;;;;;;;;;27.90;92.90;;;;;;5044834;28;19924;-75
2022/07/30 10:41:29;;;;;;;;;;;28.10;92.00;;;;;;5039434;28;19921;-79
2022/07/30 10:43:57;;;;;;;;;;;28.30;93.00;;;;;;5042049;28;20011;-77
2022/07/30 10:46:32;;;;;;;;;;;27.80;91.00;;;;;;5055712;28;20297;-75
2022/07/30 10:49:08;;;;;;;;;;;27.80;93.20;;;;;;5052808;28;19921;-75
2022/07/30 10:51:47;;;;;;;;;;;27.90;92.20;;;;;;5035695;28;19913;-74
2022/07/30 10:54:31;;;;;;;;;;;28.00;91.50;;;;;;5034692;28;19943;-74
2022/07/30 10:57:04;;;;;;;;;;;28.00;92.80;;;;;;5036950;28;19921;-74
2022/07/30 10:59:50;;;;;;;;;;;28.00;91.80;;;;;;5038783;28;19917;-73
2022/07/30 11:02:16;;;;;;;;;;;28.00;91.00;;;;;;5037251;28;19967;-73
2022/07/30 11:04:42;;;;;;;;;;;28.00;92.10;;;;;;5037910;28;19971;-75
2022/07/30 11:07:22;;;;;;;;;;;27.90;91.40;;;;;;5034919;28;19924;-73
2022/07/30 11:09:48;;;;;;;;;;;28.00;92.50;;;;;;5036867;28;19933;-75
2022/07/30 11:12:14;;;;;;;;;;;28.40;92.20;;;;;;5036208;28;19913;-74
2022/07/30 11:14:46;;;;;;;;;;;28.70;89.90;;;;;;5039171;28;19935;-75
2022/07/30 11:17:12;;;;;;;;;;;28.50;90.00;;;;;;5051096;28;20362;-73
2022/07/30 11:19:57;;;;;;;;;;;27.50;91.00;;;;;;5037944;28;20020;-74
2022/07/30 11:22:54;;;;;;;;;;;27.70;91.20;;;;;;5035657;28;19928;-75
2022/07/30 11:25:20;;;;;;;;;;;27.80;91.70;;;;;;5035516;28;19917;-73
2022/07/30 11:27:47;;;;;;;;;;;28.20;90.60;;;;;;5035633;28;19912;-74
2022/07/30 11:30:15;;;;;;;;;;;28.00;89.30;;;;;;5037340;28;20047;-76
2022/07/30 11:32:42;;;;;;;;;;;27.60;91.00;;;;;;5033864;28;19925;-79
2022/07/30 11:35:15;;;;;;;;;;;27.90;91.60;;;;;;5033904;28;19921;-75
2022/07/30 11:37:59;;;;;;;;;;;28.20;91.00;;;;;;5033349;28;19963;-74
2022/07/30 11:40:26;;;;;;;;;;;28.30;89.50;;;;;;5040539;28;20438;-78
2022/07/30 11:43:11;;;;;;;;;;;28.10;88.30;;;;;;5035974;28;20430;-75
2022/07/30 11:45:37;;;;;;;;;;;27.90;89.50;;;;;;5040425;28;19919;-75
2022/07/30 11:48:08;;;;;;;;;;;28.10;89.90;;;;;;5038633;28;19920;-75
2022/07/30 11:50:34;;;;;;;;;;;28.20;90.10;;;;;;5040019;28;20338;-74
2022/07/30 11:53:01;;;;;;;;;;;27.90;89.60;;;;;;5038680;28;19912;-76
2022/07/30 11:55:29;;;;;;;;;;;27.60;90.30;;;;;;5030503;28;19965;-74
2022/07/30 11:57:55;;;;;;;;;;;27.50;90.00;;;;;;5037857;28;19956;-75
2022/07/30 12:00:21;;;;;;;;;;;27.20;89.40;;;;;;5039577;28;19932;-73
2022/07/30 12:02:48;;;;;;;;;;;27.10;90.60;;;;;;5035604;28;19917;-75
2022/07/30 12:05:13;;;;;;;;;;;27.20;90.40;;;;;;5034960;28;19921;-75
2022/07/30 12:07:39;;;;;;;;;;;27.20;90.70;;;;;;5036763;28;19920;-74
2022/07/30 12:10:15;;;;;;;;;;;27.20;90.00;;;;;;5035637;28;20327;-74
2022/07/30 12:12:40;;;;;;;;;;;27.00;90.00;;;;;;5053561;28;19963;-78
2022/07/30 12:15:06;;;;;;;;;;;26.70;90.40;;;;;;5042028;28;20299;-74
2022/07/30 12:17:42;;;;;;;;;;;26.60;90.90;;;;;;5041527;28;20036;-74
2022/07/30 12:20:17;;;;;;;;;;;26.50;90.40;;;;;;5041289;28;19917;-75
2022/07/30 12:22:43;;;;;;;;;;;26.30;91.10;;;;;;5040169;28;19920;-75
2022/07/30 12:25:09;;;;;;;;;;;26.20;90.90;;;;;;5040952;28;19939;-75
2022/07/30 12:27:35;;;;;;;;;;;26.10;92.10;;;;;;5039280;28;19921;-75
2022/07/30 12:30:01;;;;;;;;;;;25.60;92.20;;;;;;5039960;28;19983;-81
2022/07/30 12:32:26;;;;;;;;;;;25.20;92.30;;;;;;5036023;28;19924;-76
2022/07/30 12:34:55;;;;;;;;;;;25.20;93.80;;;;;;5036437;28;20366;-75
2022/07/30 12:37:20;;;;;;;;;;;25.20;91.70;;;;;;5035597;28;19917;-75
2022/07/30 12:39:48;;;;;;;;;;;25.20;92.90;;;;;;5036987;28;19917;-76
2022/07/30 12:42:20;;;;;;;;;;;25.20;92.80;;;;;;5036022;28;20007;-75
2022/07/30 12:44:48;;;;;;;;;;;25.30;94.00;;;;;;5035804;28;19913;-74
2022/07/30 12:47:19;;;;;;;;;;;25.40;92.80;;;;;;5039619;28;19917;-74
2022/07/30 12:49:45;;;;;;;;;;;25.50;93.00;;;;;;5033516;28;20294;-74
2022/07/30 12:52:19;;;;;;;;;;;25.60;93.10;;;;;;5036753;28;19920;-75
2022/07/30 12:54:44;;;;;;;;;;;25.60;93.00;;;;;;5036138;28;19975;-76
2022/07/30 12:57:10;;;;;;;;;;;25.60;93.20;;;;;;5036542;28;19917;-78
2022/07/30 12:59:37;;;;;;;;;;;25.70;93.30;;;;;;5036211;28;19975;-75
2022/07/30 13:02:02;;;;;;;;;;;25.80;93.50;;;;;;5036932;28;19948;-77
2022/07/30 13:04:28;;;;;;;;;;;25.70;93.70;;;;;;5035345;28;20267;-75
2022/07/30 13:07:07;;;;;;;;;;;25.70;93.50;;;;;;5034142;28;19917;-75
2022/07/30 13:09:33;;;;;;;;;;;25.80;93.50;;;;;;5036671;28;20005;-82
2022/07/30 13:11:59;;;;;;;;;;;25.80;93.40;;;;;;5032820;28;20007;-76
2022/07/30 13:14:24;;;;;;;;;;;25.90;93.60;;;;;;5023826;28;20387;-75
2022/07/30 13:16:52;;;;;;;;;;;26.00;93.20;;;;;;5036454;28;21337;-75
2022/07/30 13:19:17;;;;;;;;;;;25.90;93.20;;;;;;5032378;28;20305;-74
2022/07/30 13:21:43;;;;;;;;;;;25.90;93.40;;;;;;5032084;28;19921;-75
2022/07/30 13:24:09;;;;;;;;;;;26.00;94.40;;;;;;5028993;28;20015;-75
2022/07/30 13:26:35;;;;;;;;;;;26.20;93.20;;;;;;5031955;28;20366;-75
2022/07/30 13:29:01;;;;;;;;;;;26.40;93.20;;;;;;5034389;28;19987;-75
2022/07/30 13:31:26;;;;;;;;;;;26.40;92.70;;;;;;5036295;28;19917;-75
2022/07/30 13:33:52;;;;;;;;;;;26.30;92.60;;;;;;5031927;28;19925;-74
2022/07/30 13:36:18;;;;;;;;;;;26.10;93.00;;;;;;5031413;28;19917;-73
2022/07/30 13:38:46;;;;;;;;;;;26.00;92.60;;;;;;5051115;28;19923;-77
2022/07/30 13:41:12;;;;;;;;;;;25.70;92.40;;;;;;5042864;28;19921;-76
2022/07/30 13:43:37;;;;;;;;;;;25.60;92.60;;;;;;5043460;28;20274;-76
2022/07/30 13:46:03;;;;;;;;;;;25.50;93.10;;;;;;5046230;28;19917;-76
2022/07/30 13:48:29;;;;;;;;;;;25.30;93.30;;;;;;5035607;28;19924;-75
2022/07/30 13:50:55;;;;;;;;;;;25.20;92.70;;;;;;5037606;28;19921;-76
2022/07/30 13:53:21;;;;;;;;;;;25.20;93.50;;;;;;5033178;28;19913;-79
2022/07/30 13:55:47;;;;;;;;;;;25.10;93.50;;;;;;5031924;28;19963;-75
2022/07/30 13:58:13;;;;;;;;;;;25.10;94.40;;;;;;5031492;28;19917;-77
2022/07/30 14:00:39;;;;;;;;;;;25.10;93.50;;;;;;5032519;28;19979;-77
2022/07/30 14:03:06;;;;;;;;;;;25.00;93.80;;;;;;5033841;28;19925;-77
2022/07/30 14:05:32;;;;;;;;;;;24.90;93.60;;;;;;5034604;28;19928;-77
2022/07/30 14:07:58;;;;;;;;;;;24.90;94.00;;;;;;5033031;28;19920;-78
2022/07/30 14:10:24;;;;;;;;;;;25.00;94.50;;;;;;5032774;28;20008;-75
2022/07/30 14:12:53;;;;;;;;;;;25.00;93.60;;;;;;5035117;28;19917;-76
2022/07/30 14:15:26;;;;;;;;;;;25.10;93.90;;;;;;5032099;28;19925;-76
2022/07/30 14:17:51;;;;;;;;;;;25.10;93.20;;;;;;5031723;28;19925;-76